sensor_id;sensor_type;location;lat;lon;timestamp;temperature;humidity
66670;DHT22;53568;52.164;4.472;2022-07-17T00:00:40;17.75;62.23
66670;DHT22;53568;52.164;4.472;2022-07-17T00:03:09;17.82;62.03
66670;DHT22;53568;52.164;4.472;2022-07-17T00:05:35;17.94;61.51
66670;DHT22;53568;52.164;4.472;2022-07-17T00:08:00;17.85;61.71
66670;DHT22;53568;52.164;4.472;2022-07-17T00:10:26;17.81;61.85
66670;DHT22;53568;52.164;4.472;2022-07-17T00:12:51;17.80;61.91
66670;DHT22;53568;52.164;4.472;2022-07-17T00:15:18;17.80;62.07
66670;DHT22;53568;52.164;4.472;2022-07-17T00:17:44;17.75;62.18
66670;DHT22;53568;52.164;4.472;2022-07-17T00:20:10;17.68;62.34
66670;DHT22;53568;52.164;4.472;2022-07-17T00:22:36;17.68;62.52
66670;DHT22;53568;52.164;4.472;2022-07-17T00:25:02;17.73;62.51
66670;DHT22;53568;52.164;4.472;2022-07-17T00:27:27;17.75;62.64
66670;DHT22;53568;52.164;4.472;2022-07-17T00:29:53;17.74;62.89
66670;DHT22;53568;52.164;4.472;2022-07-17T00:32:19;17.75;63.04
66670;DHT22;53568;52.164;4.472;2022-07-17T00:34:44;17.77;62.96
66670;DHT22;53568;52.164;4.472;2022-07-17T00:37:10;17.87;62.72
66670;DHT22;53568;52.164;4.472;2022-07-17T00:39:35;17.94;62.51
66670;DHT22;53568;52.164;4.472;2022-07-17T00:42:01;17.95;62.63
66670;DHT22;53568;52.164;4.472;2022-07-17T00:44:27;18.00;62.79
66670;DHT22;53568;52.164;4.472;2022-07-17T00:46:53;18.01;62.76
66670;DHT22;53568;52.164;4.472;2022-07-17T00:49:18;18.04;62.86
66670;DHT22;53568;52.164;4.472;2022-07-17T00:51:44;18.02;62.93
66670;DHT22;53568;52.164;4.472;2022-07-17T00:54:12;18.00;63.27
66670;DHT22;53568;52.164;4.472;2022-07-17T00:56:40;18.00;63.30
66670;DHT22;53568;52.164;4.472;2022-07-17T00:59:07;17.98;62.80
66670;DHT22;53568;52.164;4.472;2022-07-17T01:01:33;17.88;63.15
66670;DHT22;53568;52.164;4.472;2022-07-17T01:03:58;17.80;63.24
66670;DHT22;53568;52.164;4.472;2022-07-17T01:06:24;17.78;63.31
66670;DHT22;53568;52.164;4.472;2022-07-17T01:08:50;17.77;63.45
66670;DHT22;53568;52.164;4.472;2022-07-17T01:11:15;17.78;63.40
66670;DHT22;53568;52.164;4.472;2022-07-17T01:13:42;17.78;63.33
66670;DHT22;53568;52.164;4.472;2022-07-17T01:16:07;17.77;63.06
66670;DHT22;53568;52.164;4.472;2022-07-17T01:18:33;17.73;63.15
66670;DHT22;53568;52.164;4.472;2022-07-17T01:21:07;17.68;63.09
66670;DHT22;53568;52.164;4.472;2022-07-17T01:23:33;17.67;63.30
66670;DHT22;53568;52.164;4.472;2022-07-17T01:25:59;17.64;63.40
66670;DHT22;53568;52.164;4.472;2022-07-17T01:28:24;17.66;63.38
66670;DHT22;53568;52.164;4.472;2022-07-17T01:30:51;17.70;63.34
66670;DHT22;53568;52.164;4.472;2022-07-17T01:33:18;17.68;63.29
66670;DHT22;53568;52.164;4.472;2022-07-17T01:35:44;17.75;63.17
66670;DHT22;53568;52.164;4.472;2022-07-17T01:38:09;17.75;63.22
66670;DHT22;53568;52.164;4.472;2022-07-17T01:40:35;17.80;63.09
66670;DHT22;53568;52.164;4.472;2022-07-17T01:43:00;17.80;63.12
66670;DHT22;53568;52.164;4.472;2022-07-17T01:45:26;17.84;62.99
66670;DHT22;53568;52.164;4.472;2022-07-17T01:47:52;17.82;63.09
66670;DHT22;53568;52.164;4.472;2022-07-17T01:50:18;17.81;63.10
66670;DHT22;53568;52.164;4.472;2022-07-17T01:52:45;17.82;63.22
66670;DHT22;53568;52.164;4.472;2022-07-17T01:55:13;17.81;63.28
66670;DHT22;53568;52.164;4.472;2022-07-17T01:57:39;17.85;63.30
66670;DHT22;53568;52.164;4.472;2022-07-17T02:00:08;17.85;63.26
66670;DHT22;53568;52.164;4.472;2022-07-17T02:02:35;17.82;63.44
66670;DHT22;53568;52.164;4.472;2022-07-17T02:05:01;17.84;63.47
66670;DHT22;53568;52.164;4.472;2022-07-17T02:07:29;17.82;63.57
66670;DHT22;53568;52.164;4.472;2022-07-17T02:09:56;17.77;63.70
66670;DHT22;53568;52.164;4.472;2022-07-17T02:12:22;17.74;63.85
66670;DHT22;53568;52.164;4.472;2022-07-17T02:14:47;17.73;64.03
66670;DHT22;53568;52.164;4.472;2022-07-17T02:17:13;17.73;64.07
66670;DHT22;53568;52.164;4.472;2022-07-17T02:19:38;17.73;63.99
66670;DHT22;53568;52.164;4.472;2022-07-17T02:22:04;17.77;63.92
66670;DHT22;53568;52.164;4.472;2022-07-17T02:24:29;17.78;64.03
66670;DHT22;53568;52.164;4.472;2022-07-17T02:26:55;17.77;64.14
66670;DHT22;53568;52.164;4.472;2022-07-17T02:29:20;17.75;64.23
66670;DHT22;53568;52.164;4.472;2022-07-17T02:31:46;17.75;64.12
66670;DHT22;53568;52.164;4.472;2022-07-17T02:34:11;17.80;63.99
66670;DHT22;53568;52.164;4.472;2022-07-17T02:36:37;17.81;63.88
66670;DHT22;53568;52.164;4.472;2022-07-17T02:39:02;17.82;63.95
66670;DHT22;53568;52.164;4.472;2022-07-17T02:41:28;17.84;63.87
66670;DHT22;53568;52.164;4.472;2022-07-17T02:43:54;17.82;64.01
66670;DHT22;53568;52.164;4.472;2022-07-17T02:46:19;17.82;64.01
66670;DHT22;53568;52.164;4.472;2022-07-17T02:48:45;17.88;63.94
66670;DHT22;53568;52.164;4.472;2022-07-17T02:51:10;17.85;63.94
66670;DHT22;53568;52.164;4.472;2022-07-17T02:53:36;17.82;63.95
66670;DHT22;53568;52.164;4.472;2022-07-17T02:56:02;17.77;64.07
66670;DHT22;53568;52.164;4.472;2022-07-17T02:58:27;17.75;64.08
66670;DHT22;53568;52.164;4.472;2022-07-17T03:00:53;17.73;64.38
66670;DHT22;53568;52.164;4.472;2022-07-17T03:03:18;17.73;64.46
66670;DHT22;53568;52.164;4.472;2022-07-17T03:05:47;17.70;64.54
66670;DHT22;53568;52.164;4.472;2022-07-17T03:08:12;17.68;64.76
66670;DHT22;53568;52.164;4.472;2022-07-17T03:10:39;17.67;64.82
66670;DHT22;53568;52.164;4.472;2022-07-17T03:13:04;17.68;64.79
66670;DHT22;53568;52.164;4.472;2022-07-17T03:15:30;17.63;64.75
66670;DHT22;53568;52.164;4.472;2022-07-17T03:17:55;17.61;64.95
66670;DHT22;53568;52.164;4.472;2022-07-17T03:20:21;17.58;65.09
66670;DHT22;53568;52.164;4.472;2022-07-17T03:22:46;17.58;65.29
66670;DHT22;53568;52.164;4.472;2022-07-17T03:25:12;17.55;65.32
66670;DHT22;53568;52.164;4.472;2022-07-17T03:27:37;17.57;65.51
66670;DHT22;53568;52.164;4.472;2022-07-17T03:30:05;17.57;65.51
66670;DHT22;53568;52.164;4.472;2022-07-17T03:32:30;17.63;65.48
66670;DHT22;53568;52.164;4.472;2022-07-17T03:34:56;17.63;65.45
66670;DHT22;53568;52.164;4.472;2022-07-17T03:37:21;17.57;65.64
66670;DHT22;53568;52.164;4.472;2022-07-17T03:39:47;17.50;65.85
66670;DHT22;53568;52.164;4.472;2022-07-17T03:42:12;17.47;65.83
66670;DHT22;53568;52.164;4.472;2022-07-17T03:44:37;17.41;66.00
66670;DHT22;53568;52.164;4.472;2022-07-17T03:47:03;17.41;66.00
66670;DHT22;53568;52.164;4.472;2022-07-17T03:49:28;17.43;66.02
66670;DHT22;53568;52.164;4.472;2022-07-17T03:51:54;17.48;65.93
66670;DHT22;53568;52.164;4.472;2022-07-17T03:54:19;17.50;65.87
66670;DHT22;53568;52.164;4.472;2022-07-17T03:56:45;17.53;65.84
66670;DHT22;53568;52.164;4.472;2022-07-17T03:59:10;17.53;65.81
66670;DHT22;53568;52.164;4.472;2022-07-17T04:01:36;17.55;65.85
66670;DHT22;53568;52.164;4.472;2022-07-17T04:04:02;17.54;65.95
66670;DHT22;53568;52.164;4.472;2022-07-17T04:06:27;17.54;66.02
66670;DHT22;53568;52.164;4.472;2022-07-17T04:08:53;17.58;65.71
66670;DHT22;53568;52.164;4.472;2022-07-17T04:11:18;17.55;65.70
66670;DHT22;53568;52.164;4.472;2022-07-17T04:13:46;17.58;65.86
66670;DHT22;53568;52.164;4.472;2022-07-17T04:16:11;17.57;65.99
66670;DHT22;53568;52.164;4.472;2022-07-17T04:18:37;17.64;65.98
66670;DHT22;53568;52.164;4.472;2022-07-17T04:21:05;17.58;66.23
66670;DHT22;53568;52.164;4.472;2022-07-17T04:23:32;17.60;66.41
66670;DHT22;53568;52.164;4.472;2022-07-17T04:25:57;17.60;66.60
66670;DHT22;53568;52.164;4.472;2022-07-17T04:28:23;17.66;66.52
66670;DHT22;53568;52.164;4.472;2022-07-17T04:30:49;17.64;66.43
66670;DHT22;53568;52.164;4.472;2022-07-17T04:33:15;17.63;66.57
66670;DHT22;53568;52.164;4.472;2022-07-17T04:35:40;17.66;66.60
66670;DHT22;53568;52.164;4.472;2022-07-17T04:38:07;17.67;66.27
66670;DHT22;53568;52.164;4.472;2022-07-17T04:40:34;17.67;66.06
66670;DHT22;53568;52.164;4.472;2022-07-17T04:43:00;17.70;65.98
66670;DHT22;53568;52.164;4.472;2022-07-17T04:45:26;17.74;65.75
66670;DHT22;53568;52.164;4.472;2022-07-17T04:47:51;17.77;65.86
66670;DHT22;53568;52.164;4.472;2022-07-17T04:50:17;17.84;65.97
66670;DHT22;53568;52.164;4.472;2022-07-17T04:52:42;17.92;65.91
66670;DHT22;53568;52.164;4.472;2022-07-17T04:55:08;18.02;65.44
66670;DHT22;53568;52.164;4.472;2022-07-17T04:57:35;18.00;65.18
66670;DHT22;53568;52.164;4.472;2022-07-17T05:00:05;17.95;65.16
66670;DHT22;53568;52.164;4.472;2022-07-17T05:02:31;17.91;64.88
66670;DHT22;53568;52.164;4.472;2022-07-17T05:04:56;17.84;64.92
66670;DHT22;53568;52.164;4.472;2022-07-17T05:07:22;17.82;64.84
66670;DHT22;53568;52.164;4.472;2022-07-17T05:09:47;17.78;64.63
66670;DHT22;53568;52.164;4.472;2022-07-17T05:12:13;17.80;64.24
66670;DHT22;53568;52.164;4.472;2022-07-17T05:14:38;17.82;64.04
66670;DHT22;53568;52.164;4.472;2022-07-17T05:17:04;17.94;63.83
66670;DHT22;53568;52.164;4.472;2022-07-17T05:19:29;18.06;63.55
66670;DHT22;53568;52.164;4.472;2022-07-17T05:21:55;18.19;62.78
66670;DHT22;53568;52.164;4.472;2022-07-17T05:24:20;18.24;62.85
66670;DHT22;53568;52.164;4.472;2022-07-17T05:26:46;18.32;63.12
66670;DHT22;53568;52.164;4.472;2022-07-17T05:29:11;18.48;62.97
66670;DHT22;53568;52.164;4.472;2022-07-17T05:31:37;18.57;62.89
66670;DHT22;53568;52.164;4.472;2022-07-17T05:34:02;18.62;62.88
66670;DHT22;53568;52.164;4.472;2022-07-17T05:36:28;18.62;62.81
66670;DHT22;53568;52.164;4.472;2022-07-17T05:38:53;18.69;62.79
66670;DHT22;53568;52.164;4.472;2022-07-17T05:41:19;18.79;62.20
66670;DHT22;53568;52.164;4.472;2022-07-17T05:43:45;18.82;61.63
66670;DHT22;53568;52.164;4.472;2022-07-17T05:46:10;18.95;61.58
66670;DHT22;53568;52.164;4.472;2022-07-17T05:48:36;19.06;61.26
66670;DHT22;53568;52.164;4.472;2022-07-17T05:51:01;19.19;60.80
66670;DHT22;53568;52.164;4.472;2022-07-17T05:53:27;19.19;60.43
66670;DHT22;53568;52.164;4.472;2022-07-17T05:55:53;19.26;60.31
66670;DHT22;53568;52.164;4.472;2022-07-17T05:58:18;19.27;60.14
66670;DHT22;53568;52.164;4.472;2022-07-17T06:00:45;19.33;59.89
66670;DHT22;53568;52.164;4.472;2022-07-17T06:03:10;19.44;59.42
66670;DHT22;53568;52.164;4.472;2022-07-17T06:05:36;19.57;58.12
66670;DHT22;53568;52.164;4.472;2022-07-17T06:08:02;19.51;57.56
66670;DHT22;53568;52.164;4.472;2022-07-17T06:10:28;19.55;56.86
66670;DHT22;53568;52.164;4.472;2022-07-17T06:13:00;19.53;56.14
66670;DHT22;53568;52.164;4.472;2022-07-17T06:15:26;19.54;56.27
66670;DHT22;53568;52.164;4.472;2022-07-17T06:17:52;19.58;56.39
66670;DHT22;53568;52.164;4.472;2022-07-17T06:20:18;19.55;56.59
66670;DHT22;53568;52.164;4.472;2022-07-17T06:22:44;19.57;56.37
66670;DHT22;53568;52.164;4.472;2022-07-17T06:25:11;19.65;55.83
66670;DHT22;53568;52.164;4.472;2022-07-17T06:27:43;19.73;54.71
66670;DHT22;53568;52.164;4.472;2022-07-17T06:30:11;19.70;54.55
66670;DHT22;53568;52.164;4.472;2022-07-17T06:32:37;19.71;54.49
66670;DHT22;53568;52.164;4.472;2022-07-17T06:35:02;19.74;54.36
66670;DHT22;53568;52.164;4.472;2022-07-17T06:37:28;19.79;54.19
66670;DHT22;53568;52.164;4.472;2022-07-17T06:39:53;19.78;53.57
66670;DHT22;53568;52.164;4.472;2022-07-17T06:42:19;19.84;54.08
66670;DHT22;53568;52.164;4.472;2022-07-17T06:44:44;19.82;53.80
66670;DHT22;53568;52.164;4.472;2022-07-17T06:47:10;19.85;53.78
66670;DHT22;53568;52.164;4.472;2022-07-17T06:49:36;19.84;54.12
66670;DHT22;53568;52.164;4.472;2022-07-17T06:52:02;19.88;54.15
66670;DHT22;53568;52.164;4.472;2022-07-17T06:54:27;19.95;54.49
66670;DHT22;53568;52.164;4.472;2022-07-17T06:56:53;19.89;55.30
66670;DHT22;53568;52.164;4.472;2022-07-17T06:59:19;19.85;55.35
66670;DHT22;53568;52.164;4.472;2022-07-17T07:01:45;19.88;55.57
66670;DHT22;53568;52.164;4.472;2022-07-17T07:04:11;19.94;55.33
66670;DHT22;53568;52.164;4.472;2022-07-17T07:06:36;19.97;54.82
66670;DHT22;53568;52.164;4.472;2022-07-17T07:09:03;20.07;55.09
66670;DHT22;53568;52.164;4.472;2022-07-17T07:11:29;20.05;55.93
66670;DHT22;53568;52.164;4.472;2022-07-17T07:13:54;20.04;56.36
66670;DHT22;53568;52.164;4.472;2022-07-17T07:16:20;20.01;56.02
66670;DHT22;53568;52.164;4.472;2022-07-17T07:18:48;20.12;55.31
66670;DHT22;53568;52.164;4.472;2022-07-17T07:21:34;20.12;54.75
66670;DHT22;53568;52.164;4.472;2022-07-17T07:24:00;20.18;55.07
66670;DHT22;53568;52.164;4.472;2022-07-17T07:26:25;20.25;55.60
66670;DHT22;53568;52.164;4.472;2022-07-17T07:28:55;20.21;55.34
66670;DHT22;53568;52.164;4.472;2022-07-17T07:31:23;20.25;55.66
66670;DHT22;53568;52.164;4.472;2022-07-17T07:34:18;20.35;56.37
66670;DHT22;53568;52.164;4.472;2022-07-17T07:36:46;20.43;55.85
66670;DHT22;53568;52.164;4.472;2022-07-17T07:39:18;20.49;56.06
66670;DHT22;53568;52.164;4.472;2022-07-17T07:41:55;20.53;53.44
66670;DHT22;53568;52.164;4.472;2022-07-17T07:44:50;20.43;54.03
66670;DHT22;53568;52.164;4.472;2022-07-17T07:47:46;20.48;52.79
66670;DHT22;53568;52.164;4.472;2022-07-17T07:50:28;20.61;53.11
66670;DHT22;53568;52.164;4.472;2022-07-17T07:52:56;20.75;53.46
66670;DHT22;53568;52.164;4.472;2022-07-17T07:59:08;20.82;53.23
66670;DHT22;53568;52.164;4.472;2022-07-17T08:01:41;20.89;52.82
66670;DHT22;53568;52.164;4.472;2022-07-17T08:04:24;21.00;52.79
66670;DHT22;53568;52.164;4.472;2022-07-17T08:06:50;21.07;52.54
66670;DHT22;53568;52.164;4.472;2022-07-17T08:09:49;21.16;51.43
66670;DHT22;53568;52.164;4.472;2022-07-17T08:12:28;21.20;51.38
66670;DHT22;53568;52.164;4.472;2022-07-17T08:15:05;21.31;51.85
66670;DHT22;53568;52.164;4.472;2022-07-17T08:20:52;21.39;53.23
66670;DHT22;53568;52.164;4.472;2022-07-17T08:24:08;21.44;51.63
66670;DHT22;53568;52.164;4.472;2022-07-17T08:26:38;21.54;51.17
66670;DHT22;53568;52.164;4.472;2022-07-17T08:31:47;21.68;49.76
66670;DHT22;53568;52.164;4.472;2022-07-17T08:34:32;21.58;50.15
66670;DHT22;53568;52.164;4.472;2022-07-17T08:37:01;21.75;50.52
66670;DHT22;53568;52.164;4.472;2022-07-17T08:39:28;21.74;51.27
66670;DHT22;53568;52.164;4.472;2022-07-17T08:41:56;21.81;51.10
66670;DHT22;53568;52.164;4.472;2022-07-17T08:44:24;21.98;50.39
66670;DHT22;53568;52.164;4.472;2022-07-17T08:46:50;22.06;50.15
66670;DHT22;53568;52.164;4.472;2022-07-17T08:49:20;22.21;49.81
66670;DHT22;53568;52.164;4.472;2022-07-17T08:51:47;22.24;49.80
66670;DHT22;53568;52.164;4.472;2022-07-17T08:54:14;22.25;50.43
66670;DHT22;53568;52.164;4.472;2022-07-17T08:56:42;22.28;49.76
66670;DHT22;53568;52.164;4.472;2022-07-17T08:59:08;22.31;49.03
66670;DHT22;53568;52.164;4.472;2022-07-17T09:01:33;22.36;49.55
66670;DHT22;53568;52.164;4.472;2022-07-17T09:04:03;22.39;48.68
66670;DHT22;53568;52.164;4.472;2022-07-17T09:06:35;22.46;48.25
66670;DHT22;53568;52.164;4.472;2022-07-17T09:09:08;22.52;47.85
66670;DHT22;53568;52.164;4.472;2022-07-17T09:11:50;22.59;47.59
66670;DHT22;53568;52.164;4.472;2022-07-17T09:14:17;22.58;47.58
66670;DHT22;53568;52.164;4.472;2022-07-17T09:16:53;22.62;47.82
66670;DHT22;53568;52.164;4.472;2022-07-17T09:19:29;22.68;48.06
66670;DHT22;53568;52.164;4.472;2022-07-17T09:22:16;22.79;47.27
66670;DHT22;53568;52.164;4.472;2022-07-17T09:24:56;22.76;47.31
66670;DHT22;53568;52.164;4.472;2022-07-17T09:27:33;22.73;47.06
66670;DHT22;53568;52.164;4.472;2022-07-17T09:30:11;22.75;46.75
66670;DHT22;53568;52.164;4.472;2022-07-17T09:32:39;22.92;46.55
66670;DHT22;53568;52.164;4.472;2022-07-17T09:35:08;23.06;46.95
66670;DHT22;53568;52.164;4.472;2022-07-17T09:37:35;22.93;46.00
66670;DHT22;53568;52.164;4.472;2022-07-17T09:40:08;23.00;46.37
66670;DHT22;53568;52.164;4.472;2022-07-17T09:42:44;22.95;46.62
66670;DHT22;53568;52.164;4.472;2022-07-17T09:45:20;23.09;45.56
66670;DHT22;53568;52.164;4.472;2022-07-17T09:47:52;23.16;44.42
66670;DHT22;53568;52.164;4.472;2022-07-17T09:50:32;23.16;45.33
66670;DHT22;53568;52.164;4.472;2022-07-17T09:53:35;23.37;43.76
66670;DHT22;53568;52.164;4.472;2022-07-17T09:56:23;23.34;43.13
66670;DHT22;53568;52.164;4.472;2022-07-17T09:59:23;23.42;43.52
66670;DHT22;53568;52.164;4.472;2022-07-17T10:02:22;23.56;42.92
66670;DHT22;53568;52.164;4.472;2022-07-17T10:08:19;23.51;42.98
66670;DHT22;53568;52.164;4.472;2022-07-17T10:14:20;23.74;41.92
66670;DHT22;53568;52.164;4.472;2022-07-17T10:17:22;23.82;41.47
66670;DHT22;53568;52.164;4.472;2022-07-17T10:23:17;24.02;42.05
66670;DHT22;53568;52.164;4.472;2022-07-17T10:26:02;24.01;41.69
66670;DHT22;53568;52.164;4.472;2022-07-17T10:28:58;24.12;40.74
66670;DHT22;53568;52.164;4.472;2022-07-17T10:31:53;24.12;40.40
66670;DHT22;53568;52.164;4.472;2022-07-17T10:38:20;24.08;43.21
66670;DHT22;53568;52.164;4.472;2022-07-17T10:41:40;24.12;43.26
66670;DHT22;53568;52.164;4.472;2022-07-17T10:58:16;24.66;41.50
66670;DHT22;53568;52.164;4.472;2022-07-17T11:03:48;24.55;39.80
66670;DHT22;53568;52.164;4.472;2022-07-17T11:06:22;24.41;40.39
66670;DHT22;53568;52.164;4.472;2022-07-17T11:09:05;24.26;40.74
66670;DHT22;53568;52.164;4.472;2022-07-17T11:16:34;24.35;40.61
66670;DHT22;53568;52.164;4.472;2022-07-17T11:22:11;24.44;40.97
66670;DHT22;53568;52.164;4.472;2022-07-17T11:24:48;24.65;40.62
66670;DHT22;53568;52.164;4.472;2022-07-17T11:27:27;24.73;40.14
66670;DHT22;53568;52.164;4.472;2022-07-17T11:30:01;24.92;40.28
66670;DHT22;53568;52.164;4.472;2022-07-17T11:32:38;24.99;40.80
66670;DHT22;53568;52.164;4.472;2022-07-17T11:35:45;25.12;40.70
66670;DHT22;53568;52.164;4.472;2022-07-17T11:38:30;25.31;40.83
66670;DHT22;53568;52.164;4.472;2022-07-17T11:40:56;25.46;40.80
66670;DHT22;53568;52.164;4.472;2022-07-17T11:43:51;25.71;40.22
66670;DHT22;53568;52.164;4.472;2022-07-17T11:46:31;25.60;37.95
66670;DHT22;53568;52.164;4.472;2022-07-17T11:49:10;25.53;38.20
66670;DHT22;53568;52.164;4.472;2022-07-17T11:51:48;25.30;38.61
66670;DHT22;53568;52.164;4.472;2022-07-17T11:54:26;25.31;38.98
66670;DHT22;53568;52.164;4.472;2022-07-17T11:57:01;25.19;37.93
66670;DHT22;53568;52.164;4.472;2022-07-17T11:59:36;25.10;38.59
66670;DHT22;53568;52.164;4.472;2022-07-17T12:02:17;25.26;38.30
66670;DHT22;53568;52.164;4.472;2022-07-17T12:04:59;25.41;38.27
66670;DHT22;53568;52.164;4.472;2022-07-17T12:07:40;25.47;38.22
66670;DHT22;53568;52.164;4.472;2022-07-17T12:10:17;25.60;39.16
66670;DHT22;53568;52.164;4.472;2022-07-17T12:15:46;25.87;39.94
66670;DHT22;53568;52.164;4.472;2022-07-17T12:18:29;25.90;39.79
66670;DHT22;53568;52.164;4.472;2022-07-17T12:21:03;26.07;38.21
66670;DHT22;53568;52.164;4.472;2022-07-17T12:28:39;26.08;38.78
66670;DHT22;53568;52.164;4.472;2022-07-17T12:31:19;26.04;38.36
66670;DHT22;53568;52.164;4.472;2022-07-17T12:33:50;26.20;38.39
66670;DHT22;53568;52.164;4.472;2022-07-17T12:36:20;26.20;37.78
66670;DHT22;53568;52.164;4.472;2022-07-17T12:38:48;26.29;37.40
66670;DHT22;53568;52.164;4.472;2022-07-17T12:41:14;26.35;37.08
66670;DHT22;53568;52.164;4.472;2022-07-17T12:43:45;26.37;37.37
66670;DHT22;53568;52.164;4.472;2022-07-17T12:46:34;26.51;37.15
66670;DHT22;53568;52.164;4.472;2022-07-17T12:49:00;26.52;36.95
66670;DHT22;53568;52.164;4.472;2022-07-17T12:51:29;26.65;36.14
66670;DHT22;53568;52.164;4.472;2022-07-17T12:53:58;26.71;35.51
66670;DHT22;53568;52.164;4.472;2022-07-17T12:56:24;26.72;35.37
66670;DHT22;53568;52.164;4.472;2022-07-17T12:58:54;26.55;35.61
66670;DHT22;53568;52.164;4.472;2022-07-17T13:01:28;26.62;35.78
66670;DHT22;53568;52.164;4.472;2022-07-17T13:03:54;26.68;36.56
66670;DHT22;53568;52.164;4.472;2022-07-17T13:06:26;26.62;35.42
66670;DHT22;53568;52.164;4.472;2022-07-17T13:09:02;26.53;35.48
66670;DHT22;53568;52.164;4.472;2022-07-17T13:11:30;26.51;35.75
66670;DHT22;53568;52.164;4.472;2022-07-17T13:14:06;26.53;36.01
66670;DHT22;53568;52.164;4.472;2022-07-17T13:16:53;26.67;35.53
66670;DHT22;53568;52.164;4.472;2022-07-17T13:19:18;26.61;35.31
66670;DHT22;53568;52.164;4.472;2022-07-17T13:21:44;26.63;35.77
66670;DHT22;53568;52.164;4.472;2022-07-17T13:24:10;26.62;36.16
66670;DHT22;53568;52.164;4.472;2022-07-17T13:26:37;26.63;35.93
66670;DHT22;53568;52.164;4.472;2022-07-17T13:29:05;26.72;35.40
66670;DHT22;53568;52.164;4.472;2022-07-17T13:31:31;26.78;35.43
66670;DHT22;53568;52.164;4.472;2022-07-17T13:33:57;26.83;35.85
66670;DHT22;53568;52.164;4.472;2022-07-17T13:36:26;27.02;36.26
66670;DHT22;53568;52.164;4.472;2022-07-17T13:38:52;27.15;35.81
66670;DHT22;53568;52.164;4.472;2022-07-17T13:41:22;27.20;36.20
66670;DHT22;53568;52.164;4.472;2022-07-17T13:44:01;27.25;36.97
66670;DHT22;53568;52.164;4.472;2022-07-17T13:46:35;27.36;36.84
66670;DHT22;53568;52.164;4.472;2022-07-17T13:49:00;27.42;37.39
66670;DHT22;53568;52.164;4.472;2022-07-17T13:51:26;27.43;37.21
66670;DHT22;53568;52.164;4.472;2022-07-17T13:53:53;27.50;37.48
66670;DHT22;53568;52.164;4.472;2022-07-17T13:56:20;27.54;37.39
66670;DHT22;53568;52.164;4.472;2022-07-17T13:58:48;27.56;37.80
66670;DHT22;53568;52.164;4.472;2022-07-17T14:01:19;27.57;38.26
66670;DHT22;53568;52.164;4.472;2022-07-17T14:03:53;27.69;37.39
66670;DHT22;53568;52.164;4.472;2022-07-17T14:06:18;27.66;37.38
66670;DHT22;53568;52.164;4.472;2022-07-17T14:08:54;27.61;37.12
66670;DHT22;53568;52.164;4.472;2022-07-17T14:11:23;27.56;37.72
66670;DHT22;53568;52.164;4.472;2022-07-17T14:13:48;27.69;36.41
66670;DHT22;53568;52.164;4.472;2022-07-17T14:16:16;27.67;36.98
66670;DHT22;53568;52.164;4.472;2022-07-17T14:18:42;27.83;36.06
66670;DHT22;53568;52.164;4.472;2022-07-17T14:21:34;27.87;35.19
66670;DHT22;53568;52.164;4.472;2022-07-17T14:24:02;27.81;34.80
66670;DHT22;53568;52.164;4.472;2022-07-17T14:26:28;27.61;35.96
66670;DHT22;53568;52.164;4.472;2022-07-17T14:28:53;27.33;36.45
66670;DHT22;53568;52.164;4.472;2022-07-17T14:31:19;26.95;37.18
66670;DHT22;53568;52.164;4.472;2022-07-17T14:33:45;26.91;37.38
66670;DHT22;53568;52.164;4.472;2022-07-17T14:36:12;27.02;37.65
66670;DHT22;53568;52.164;4.472;2022-07-17T14:38:40;27.23;37.73
66670;DHT22;53568;52.164;4.472;2022-07-17T14:41:06;27.23;37.23
66670;DHT22;53568;52.164;4.472;2022-07-17T14:43:35;27.23;37.78
66670;DHT22;53568;52.164;4.472;2022-07-17T14:46:01;27.32;37.73
66670;DHT22;53568;52.164;4.472;2022-07-17T14:48:29;27.45;37.81
66670;DHT22;53568;52.164;4.472;2022-07-17T14:50:57;27.54;38.02
66670;DHT22;53568;52.164;4.472;2022-07-17T14:53:23;27.54;37.42
66670;DHT22;53568;52.164;4.472;2022-07-17T14:55:48;27.49;37.44
66670;DHT22;53568;52.164;4.472;2022-07-17T14:58:14;27.47;36.92
66670;DHT22;53568;52.164;4.472;2022-07-17T15:00:42;27.40;37.50
66670;DHT22;53568;52.164;4.472;2022-07-17T15:03:11;27.42;37.13
66670;DHT22;53568;52.164;4.472;2022-07-17T15:05:44;27.49;36.57
66670;DHT22;53568;52.164;4.472;2022-07-17T15:08:21;27.40;36.65
66670;DHT22;53568;52.164;4.472;2022-07-17T15:10:46;27.39;36.96
66670;DHT22;53568;52.164;4.472;2022-07-17T15:13:15;27.33;36.92
66670;DHT22;53568;52.164;4.472;2022-07-17T15:15:45;26.95;37.94
66670;DHT22;53568;52.164;4.472;2022-07-17T15:18:11;26.92;37.75
66670;DHT22;53568;52.164;4.472;2022-07-17T15:20:36;27.09;37.66
66670;DHT22;53568;52.164;4.472;2022-07-17T15:23:07;27.16;37.17
66670;DHT22;53568;52.164;4.472;2022-07-17T15:25:33;27.07;37.55
66670;DHT22;53568;52.164;4.472;2022-07-17T15:27:58;27.23;37.10
66670;DHT22;53568;52.164;4.472;2022-07-17T15:30:24;27.22;37.05
66670;DHT22;53568;52.164;4.472;2022-07-17T15:32:50;27.29;37.12
66670;DHT22;53568;52.164;4.472;2022-07-17T15:35:15;27.32;37.56
66670;DHT22;53568;52.164;4.472;2022-07-17T15:37:41;27.45;37.22
66670;DHT22;53568;52.164;4.472;2022-07-17T15:40:07;27.56;36.41
66670;DHT22;53568;52.164;4.472;2022-07-17T15:42:36;27.57;36.42
66670;DHT22;53568;52.164;4.472;2022-07-17T15:45:02;27.61;36.53
66670;DHT22;53568;52.164;4.472;2022-07-17T15:47:34;27.49;35.53
66670;DHT22;53568;52.164;4.472;2022-07-17T15:50:00;27.42;35.96
66670;DHT22;53568;52.164;4.472;2022-07-17T15:52:32;27.57;34.89
66670;DHT22;53568;52.164;4.472;2022-07-17T15:55:18;27.61;34.92
66670;DHT22;53568;52.164;4.472;2022-07-17T15:57:44;27.54;35.86
66670;DHT22;53568;52.164;4.472;2022-07-17T16:00:10;27.53;36.66
66670;DHT22;53568;52.164;4.472;2022-07-17T16:02:41;27.61;35.80
66670;DHT22;53568;52.164;4.472;2022-07-17T16:05:09;27.49;36.06
66670;DHT22;53568;52.164;4.472;2022-07-17T16:07:44;27.51;36.52
66670;DHT22;53568;52.164;4.472;2022-07-17T16:10:20;27.70;35.95
66670;DHT22;53568;52.164;4.472;2022-07-17T16:12:57;27.87;36.67
66670;DHT22;53568;52.164;4.472;2022-07-17T16:15:25;27.87;36.22
66670;DHT22;53568;52.164;4.472;2022-07-17T16:18:08;27.91;35.63
66670;DHT22;53568;52.164;4.472;2022-07-17T16:20:45;27.87;36.10
66670;DHT22;53568;52.164;4.472;2022-07-17T16:23:23;27.97;36.11
66670;DHT22;53568;52.164;4.472;2022-07-17T16:28:28;27.87;36.58
66670;DHT22;53568;52.164;4.472;2022-07-17T16:31:06;27.83;36.24
66670;DHT22;53568;52.164;4.472;2022-07-17T16:33:40;27.80;36.70
66670;DHT22;53568;52.164;4.472;2022-07-17T16:36:06;27.89;36.83
66670;DHT22;53568;52.164;4.472;2022-07-17T16:38:49;27.86;36.09
66670;DHT22;53568;52.164;4.472;2022-07-17T16:41:20;27.64;36.68
66670;DHT22;53568;52.164;4.472;2022-07-17T16:43:58;27.64;36.79
66670;DHT22;53568;52.164;4.472;2022-07-17T16:46:26;27.70;36.99